sensor_id;sensor_type;location;lat;lon;timestamp;P1;durP1;ratioP1;P2;durP2;ratioP2
55312;SDS011;46892;45.668;11.756;2022-12-18T00:01:31;9.33;;;6.10;;
55312;SDS011;46892;45.668;11.756;2022-12-18T00:03:59;9.73;;;6.20;;
55312;SDS011;46892;45.668;11.756;2022-12-18T00:06:27;9.73;;;6.50;;
55312;SDS011;46892;45.668;11.756;2022-12-18T00:08:54;9.57;;;6.20;;
55312;SDS011;46892;45.668;11.756;2022-12-18T00:11:22;8.83;;;5.80;;
55312;SDS011;46892;45.668;11.756;2022-12-18T00:13:50;11.17;;;7.03;;
55312;SDS011;46892;45.668;11.756;2022-12-18T00:16:17;13.27;;;7.97;;
55312;SDS011;46892;45.668;11.756;2022-12-18T00:18:45;7.67;;;5.60;;
55312;SDS011;46892;45.668;11.756;2022-12-18T00:21:12;7.23;;;5.30;;
55312;SDS011;46892;45.668;11.756;2022-12-18T00:23:40;7.67;;;5.50;;
55312;SDS011;46892;45.668;11.756;2022-12-18T00:26:09;6.73;;;4.83;;
55312;SDS011;46892;45.668;11.756;2022-12-18T00:28:37;6.82;;;4.85;;
55312;SDS011;46892;45.668;11.756;2022-12-18T00:31:07;7.57;;;5.13;;
55312;SDS011;46892;45.668;11.756;2022-12-18T00:33:35;8.00;;;5.37;;
55312;SDS011;46892;45.668;11.756;2022-12-18T00:36:02;12.00;;;8.17;;
55312;SDS011;46892;45.668;11.756;2022-12-18T00:38:28;8.00;;;6.00;;
55312;SDS011;46892;45.668;11.756;2022-12-18T00:40:53;8.50;;;6.23;;
55312;SDS011;46892;45.668;11.756;2022-12-18T00:43:19;12.53;;;8.43;;
55312;SDS011;46892;45.668;11.756;2022-12-18T00:45:45;9.20;;;6.53;;
55312;SDS011;46892;45.668;11.756;2022-12-18T00:48:10;8.23;;;6.43;;
55312;SDS011;46892;45.668;11.756;2022-12-18T00:50:36;9.17;;;6.73;;
55312;SDS011;46892;45.668;11.756;2022-12-18T00:53:02;8.90;;;5.93;;
55312;SDS011;46892;45.668;11.756;2022-12-18T00:55:27;8.90;;;6.10;;
55312;SDS011;46892;45.668;11.756;2022-12-18T00:57:53;8.13;;;5.87;;
55312;SDS011;46892;45.668;11.756;2022-12-18T01:00:19;7.80;;;6.10;;
55312;SDS011;46892;45.668;11.756;2022-12-18T01:02:44;9.60;;;6.37;;
55312;SDS011;46892;45.668;11.756;2022-12-18T01:05:14;7.30;;;5.40;;
55312;SDS011;46892;45.668;11.756;2022-12-18T01:07:40;8.95;;;6.47;;
55312;SDS011;46892;45.668;11.756;2022-12-18T01:10:06;9.87;;;6.40;;
55312;SDS011;46892;45.668;11.756;2022-12-18T01:12:35;16.20;;;7.07;;
55312;SDS011;46892;45.668;11.756;2022-12-18T01:15:01;10.50;;;7.40;;
55312;SDS011;46892;45.668;11.756;2022-12-18T01:17:27;10.43;;;7.20;;
55312;SDS011;46892;45.668;11.756;2022-12-18T01:19:52;9.03;;;6.83;;
55312;SDS011;46892;45.668;11.756;2022-12-18T01:22:18;10.00;;;6.30;;
55312;SDS011;46892;45.668;11.756;2022-12-18T01:24:44;9.97;;;6.50;;
55312;SDS011;46892;45.668;11.756;2022-12-18T01:27:09;11.33;;;6.97;;
55312;SDS011;46892;45.668;11.756;2022-12-18T01:29:35;10.60;;;6.80;;
55312;SDS011;46892;45.668;11.756;2022-12-18T01:32:01;10.53;;;7.40;;
55312;SDS011;46892;45.668;11.756;2022-12-18T01:34:26;11.17;;;7.03;;
55312;SDS011;46892;45.668;11.756;2022-12-18T01:36:52;10.47;;;7.90;;
55312;SDS011;46892;45.668;11.756;2022-12-18T01:39:18;11.07;;;7.30;;
55312;SDS011;46892;45.668;11.756;2022-12-18T01:41:45;10.87;;;7.30;;
55312;SDS011;46892;45.668;11.756;2022-12-18T01:50:04;10.20;;;7.13;;
55312;SDS011;46892;45.668;11.756;2022-12-18T01:52:33;12.13;;;7.40;;
55312;SDS011;46892;45.668;11.756;2022-12-18T01:55:01;14.73;;;9.13;;
55312;SDS011;46892;45.668;11.756;2022-12-18T01:57:29;15.20;;;8.93;;
55312;SDS011;46892;45.668;11.756;2022-12-18T01:59:57;13.27;;;8.73;;
55312;SDS011;46892;45.668;11.756;2022-12-18T02:02:26;12.53;;;8.43;;
55312;SDS011;46892;45.668;11.756;2022-12-18T02:04:53;12.53;;;7.43;;
55312;SDS011;46892;45.668;11.756;2022-12-18T02:15:09;15.70;;;8.63;;
55312;SDS011;46892;45.668;11.756;2022-12-18T02:17:44;14.20;;;8.27;;
55312;SDS011;46892;45.668;11.756;2022-12-18T02:20:48;13.97;;;9.00;;
55312;SDS011;46892;45.668;11.756;2022-12-18T02:23:56;18.93;;;11.00;;
55312;SDS011;46892;45.668;11.756;2022-12-18T02:27:07;16.97;;;11.33;;
55312;SDS011;46892;45.668;11.756;2022-12-18T02:29:38;17.93;;;10.43;;
55312;SDS011;46892;45.668;11.756;2022-12-18T02:32:13;15.63;;;10.37;;
55312;SDS011;46892;45.668;11.756;2022-12-18T02:34:42;16.73;;;10.93;;
55312;SDS011;46892;45.668;11.756;2022-12-18T02:37:10;17.33;;;10.63;;
55312;SDS011;46892;45.668;11.756;2022-12-18T02:39:40;16.13;;;10.43;;
55312;SDS011;46892;45.668;11.756;2022-12-18T02:42:07;14.63;;;9.53;;
55312;SDS011;46892;45.668;11.756;2022-12-18T02:44:43;13.20;;;8.57;;
55312;SDS011;46892;45.668;11.756;2022-12-18T02:47:11;12.37;;;8.43;;
55312;SDS011;46892;45.668;11.756;2022-12-18T03:00:42;14.73;;;8.13;;
55312;SDS011;46892;45.668;11.756;2022-12-18T03:03:34;10.80;;;7.13;;
55312;SDS011;46892;45.668;11.756;2022-12-18T03:06:08;11.83;;;8.13;;
55312;SDS011;46892;45.668;11.756;2022-12-18T03:08:41;12.50;;;8.07;;
55312;SDS011;46892;45.668;11.756;2022-12-18T03:11:11;12.52;;;8.55;;
55312;SDS011;46892;45.668;11.756;2022-12-18T03:16:04;11.97;;;7.87;;
55312;SDS011;46892;45.668;11.756;2022-12-18T03:21:07;12.30;;;7.67;;
55312;SDS011;46892;45.668;11.756;2022-12-18T03:23:36;13.07;;;6.93;;
55312;SDS011;46892;45.668;11.756;2022-12-18T03:26:10;10.57;;;7.37;;
55312;SDS011;46892;45.668;11.756;2022-12-18T03:28:44;10.53;;;6.90;;
55312;SDS011;46892;45.668;11.756;2022-12-18T03:31:14;10.97;;;7.63;;
55312;SDS011;46892;45.668;11.756;2022-12-18T03:33:42;11.80;;;7.50;;
55312;SDS011;46892;45.668;11.756;2022-12-18T03:36:12;10.23;;;7.67;;
55312;SDS011;46892;45.668;11.756;2022-12-18T03:38:38;11.83;;;8.17;;
55312;SDS011;46892;45.668;11.756;2022-12-18T03:43:42;11.07;;;7.47;;
55312;SDS011;46892;45.668;11.756;2022-12-18T03:46:21;10.10;;;7.63;;
55312;SDS011;46892;45.668;11.756;2022-12-18T03:49:41;11.18;;;7.65;;
55312;SDS011;46892;45.668;11.756;2022-12-18T03:54:47;15.37;;;8.77;;
55312;SDS011;46892;45.668;11.756;2022-12-18T03:57:16;13.53;;;8.00;;
55312;SDS011;46892;45.668;11.756;2022-12-18T03:59:47;10.27;;;6.50;;
55312;SDS011;46892;45.668;11.756;2022-12-18T04:02:17;9.85;;;6.45;;
55312;SDS011;46892;45.668;11.756;2022-12-18T04:04:43;10.00;;;6.20;;
55312;SDS011;46892;45.668;11.756;2022-12-18T04:07:11;9.83;;;6.77;;
55312;SDS011;46892;45.668;11.756;2022-12-18T04:09:39;9.70;;;6.47;;
55312;SDS011;46892;45.668;11.756;2022-12-18T04:12:06;9.50;;;6.43;;
55312;SDS011;46892;45.668;11.756;2022-12-18T04:14:33;9.07;;;6.77;;
55312;SDS011;46892;45.668;11.756;2022-12-18T04:17:00;11.03;;;7.37;;
55312;SDS011;46892;45.668;11.756;2022-12-18T04:19:27;9.30;;;6.83;;
55312;SDS011;46892;45.668;11.756;2022-12-18T04:21:53;11.43;;;7.30;;
55312;SDS011;46892;45.668;11.756;2022-12-18T04:24:18;9.50;;;6.27;;
55312;SDS011;46892;45.668;11.756;2022-12-18T04:26:44;8.40;;;6.00;;
55312;SDS011;46892;45.668;11.756;2022-12-18T04:29:10;8.10;;;6.27;;
55312;SDS011;46892;45.668;11.756;2022-12-18T04:31:36;12.23;;;6.73;;
55312;SDS011;46892;45.668;11.756;2022-12-18T04:34:01;10.00;;;6.20;;
55312;SDS011;46892;45.668;11.756;2022-12-18T04:36:27;10.73;;;6.80;;
55312;SDS011;46892;45.668;11.756;2022-12-18T04:38:53;10.70;;;6.43;;
55312;SDS011;46892;45.668;11.756;2022-12-18T04:41:18;11.03;;;7.20;;
55312;SDS011;46892;45.668;11.756;2022-12-18T04:43:44;9.10;;;6.80;;
55312;SDS011;46892;45.668;11.756;2022-12-18T04:46:10;9.20;;;6.40;;
55312;SDS011;46892;45.668;11.756;2022-12-18T04:48:36;8.73;;;6.00;;
55312;SDS011;46892;45.668;11.756;2022-12-18T04:51:02;8.27;;;5.70;;
55312;SDS011;46892;45.668;11.756;2022-12-18T04:53:28;8.83;;;5.93;;
55312;SDS011;46892;45.668;11.756;2022-12-18T04:56:07;8.57;;;5.80;;
55312;SDS011;46892;45.668;11.756;2022-12-18T04:58:35;8.73;;;6.13;;
55312;SDS011;46892;45.668;11.756;2022-12-18T05:01:02;11.77;;;7.20;;
55312;SDS011;46892;45.668;11.756;2022-12-18T05:03:29;10.50;;;7.47;;
55312;SDS011;46892;45.668;11.756;2022-12-18T05:05:54;11.03;;;7.17;;
55312;SDS011;46892;45.668;11.756;2022-12-18T05:08:20;9.67;;;6.93;;
55312;SDS011;46892;45.668;11.756;2022-12-18T05:10:46;12.20;;;6.87;;
55312;SDS011;46892;45.668;11.756;2022-12-18T05:13:12;9.87;;;6.90;;
55312;SDS011;46892;45.668;11.756;2022-12-18T05:15:37;10.07;;;6.77;;
55312;SDS011;46892;45.668;11.756;2022-12-18T05:18:03;13.77;;;7.33;;
55312;SDS011;46892;45.668;11.756;2022-12-18T05:20:30;12.87;;;7.10;;
55312;SDS011;46892;45.668;11.756;2022-12-18T05:22:56;14.13;;;7.73;;
55312;SDS011;46892;45.668;11.756;2022-12-18T05:25:22;13.23;;;8.13;;
55312;SDS011;46892;45.668;11.756;2022-12-18T05:27:48;13.00;;;7.77;;
55312;SDS011;46892;45.668;11.756;2022-12-18T05:30:14;14.47;;;8.70;;
55312;SDS011;46892;45.668;11.756;2022-12-18T05:32:40;12.90;;;7.73;;
55312;SDS011;46892;45.668;11.756;2022-12-18T05:35:07;11.17;;;7.90;;
55312;SDS011;46892;45.668;11.756;2022-12-18T05:37:33;10.60;;;6.97;;
55312;SDS011;46892;45.668;11.756;2022-12-18T05:39:59;10.77;;;7.13;;
55312;SDS011;46892;45.668;11.756;2022-12-18T05:42:25;11.23;;;7.00;;
55312;SDS011;46892;45.668;11.756;2022-12-18T05:44:51;10.80;;;6.90;;
55312;SDS011;46892;45.668;11.756;2022-12-18T05:47:16;9.90;;;6.47;;
55312;SDS011;46892;45.668;11.756;2022-12-18T05:49:42;10.43;;;6.60;;
55312;SDS011;46892;45.668;11.756;2022-12-18T05:52:08;11.90;;;7.37;;
55312;SDS011;46892;45.668;11.756;2022-12-18T05:54:34;10.03;;;6.70;;
55312;SDS011;46892;45.668;11.756;2022-12-18T05:56:59;9.33;;;6.67;;
55312;SDS011;46892;45.668;11.756;2022-12-18T05:59:25;18.87;;;9.10;;
55312;SDS011;46892;45.668;11.756;2022-12-18T06:01:51;13.80;;;7.67;;
55312;SDS011;46892;45.668;11.756;2022-12-18T06:04:16;10.33;;;7.23;;
55312;SDS011;46892;45.668;11.756;2022-12-18T06:06:42;12.17;;;7.50;;
55312;SDS011;46892;45.668;11.756;2022-12-18T06:09:08;12.17;;;7.43;;
55312;SDS011;46892;45.668;11.756;2022-12-18T06:11:37;12.20;;;7.37;;
55312;SDS011;46892;45.668;11.756;2022-12-18T06:14:03;11.57;;;7.60;;
55312;SDS011;46892;45.668;11.756;2022-12-18T06:16:30;14.07;;;8.00;;
55312;SDS011;46892;45.668;11.756;2022-12-18T06:18:56;8.80;;;6.60;;
55312;SDS011;46892;45.668;11.756;2022-12-18T06:21:26;13.43;;;8.23;;
55312;SDS011;46892;45.668;11.756;2022-12-18T06:23:52;13.30;;;8.10;;
55312;SDS011;46892;45.668;11.756;2022-12-18T06:26:18;11.23;;;7.93;;
55312;SDS011;46892;45.668;11.756;2022-12-18T06:28:44;12.97;;;8.27;;
55312;SDS011;46892;45.668;11.756;2022-12-18T06:31:10;14.07;;;8.00;;
55312;SDS011;46892;45.668;11.756;2022-12-18T06:33:36;10.03;;;7.03;;
55312;SDS011;46892;45.668;11.756;2022-12-18T06:36:06;11.00;;;7.10;;
55312;SDS011;46892;45.668;11.756;2022-12-18T06:38:34;15.00;;;7.57;;
55312;SDS011;46892;45.668;11.756;2022-12-18T06:41:02;12.80;;;6.50;;
55312;SDS011;46892;45.668;11.756;2022-12-18T06:43:32;11.43;;;6.13;;
55312;SDS011;46892;45.668;11.756;2022-12-18T06:45:58;12.33;;;6.80;;
55312;SDS011;46892;45.668;11.756;2022-12-18T06:48:25;11.23;;;6.40;;
55312;SDS011;46892;45.668;11.756;2022-12-18T06:50:50;9.77;;;6.10;;
55312;SDS011;46892;45.668;11.756;2022-12-18T06:53:16;9.80;;;6.13;;
55312;SDS011;46892;45.668;11.756;2022-12-18T06:55:42;10.80;;;6.80;;
55312;SDS011;46892;45.668;11.756;2022-12-18T06:58:08;10.63;;;6.70;;
55312;SDS011;46892;45.668;11.756;2022-12-18T07:00:34;9.10;;;5.93;;
55312;SDS011;46892;45.668;11.756;2022-12-18T07:03:00;10.27;;;6.93;;
55312;SDS011;46892;45.668;11.756;2022-12-18T07:05:25;11.00;;;7.17;;
55312;SDS011;46892;45.668;11.756;2022-12-18T07:07:51;10.40;;;6.30;;
55312;SDS011;46892;45.668;11.756;2022-12-18T07:10:17;9.73;;;5.90;;
55312;SDS011;46892;45.668;11.756;2022-12-18T07:12:43;10.77;;;6.40;;
55312;SDS011;46892;45.668;11.756;2022-12-18T07:15:09;11.00;;;7.20;;
55312;SDS011;46892;45.668;11.756;2022-12-18T07:17:34;10.93;;;7.60;;
55312;SDS011;46892;45.668;11.756;2022-12-18T07:20:00;10.10;;;6.47;;
55312;SDS011;46892;45.668;11.756;2022-12-18T07:22:26;10.53;;;6.97;;
55312;SDS011;46892;45.668;11.756;2022-12-18T07:24:52;9.23;;;7.10;;
55312;SDS011;46892;45.668;11.756;2022-12-18T07:27:18;9.93;;;6.67;;
55312;SDS011;46892;45.668;11.756;2022-12-18T07:29:43;12.60;;;8.77;;
55312;SDS011;46892;45.668;11.756;2022-12-18T07:32:09;16.10;;;9.83;;
55312;SDS011;46892;45.668;11.756;2022-12-18T07:34:35;19.93;;;13.40;;
55312;SDS011;46892;45.668;11.756;2022-12-18T07:37:00;12.60;;;9.03;;
55312;SDS011;46892;45.668;11.756;2022-12-18T07:39:26;13.63;;;9.27;;
55312;SDS011;46892;45.668;11.756;2022-12-18T07:41:52;11.57;;;8.37;;
55312;SDS011;46892;45.668;11.756;2022-12-18T07:44:37;10.47;;;7.57;;
55312;SDS011;46892;45.668;11.756;2022-12-18T07:47:02;13.93;;;9.07;;
55312;SDS011;46892;45.668;11.756;2022-12-18T07:49:28;13.27;;;9.50;;
55312;SDS011;46892;45.668;11.756;2022-12-18T07:51:55;13.43;;;8.17;;
55312;SDS011;46892;45.668;11.756;2022-12-18T07:54:21;14.17;;;9.37;;
55312;SDS011;46892;45.668;11.756;2022-12-18T07:56:48;12.30;;;9.37;;
55312;SDS011;46892;45.668;11.756;2022-12-18T07:59:13;15.23;;;10.17;;
55312;SDS011;46892;45.668;11.756;2022-12-18T08:01:39;13.00;;;9.67;;
55312;SDS011;46892;45.668;11.756;2022-12-18T08:04:05;15.70;;;10.90;;
55312;SDS011;46892;45.668;11.756;2022-12-18T08:06:30;14.67;;;10.43;;
55312;SDS011;46892;45.668;11.756;2022-12-18T08:08:56;13.80;;;10.60;;
55312;SDS011;46892;45.668;11.756;2022-12-18T08:11:23;16.47;;;10.70;;
55312;SDS011;46892;45.668;11.756;2022-12-18T08:13:50;19.80;;;12.77;;
55312;SDS011;46892;45.668;11.756;2022-12-18T08:16:16;27.03;;;15.07;;
55312;SDS011;46892;45.668;11.756;2022-12-18T08:18:42;25.03;;;15.00;;
55312;SDS011;46892;45.668;11.756;2022-12-18T08:21:15;21.43;;;13.90;;
55312;SDS011;46892;45.668;11.756;2022-12-18T08:23:43;23.37;;;14.93;;
55312;SDS011;46892;45.668;11.756;2022-12-18T08:26:09;23.20;;;14.83;;
55312;SDS011;46892;45.668;11.756;2022-12-18T08:28:36;18.13;;;12.00;;
55312;SDS011;46892;45.668;11.756;2022-12-18T08:31:01;18.47;;;11.53;;
55312;SDS011;46892;45.668;11.756;2022-12-18T08:33:27;19.17;;;11.80;;
55312;SDS011;46892;45.668;11.756;2022-12-18T08:35:53;15.40;;;10.50;;
55312;SDS011;46892;45.668;11.756;2022-12-18T08:38:19;13.53;;;9.37;;
55312;SDS011;46892;45.668;11.756;2022-12-18T08:40:44;16.27;;;10.60;;
55312;SDS011;46892;45.668;11.756;2022-12-18T08:43:10;18.30;;;12.47;;
55312;SDS011;46892;45.668;11.756;2022-12-18T08:45:54;16.47;;;11.80;;
55312;SDS011;46892;45.668;11.756;2022-12-18T08:48:20;17.23;;;11.57;;
55312;SDS011;46892;45.668;11.756;2022-12-18T08:50:56;15.27;;;10.97;;
55312;SDS011;46892;45.668;11.756;2022-12-18T08:53:23;16.43;;;11.63;;
55312;SDS011;46892;45.668;11.756;2022-12-18T08:55:50;15.40;;;10.73;;
55312;SDS011;46892;45.668;11.756;2022-12-18T08:58:16;14.13;;;10.17;;
55312;SDS011;46892;45.668;11.756;2022-12-18T09:00:42;13.73;;;9.37;;
55312;SDS011;46892;45.668;11.756;2022-12-18T09:03:12;12.20;;;8.70;;
55312;SDS011;46892;45.668;11.756;2022-12-18T09:05:38;13.15;;;8.70;;
55312;SDS011;46892;45.668;11.756;2022-12-18T09:08:04;13.23;;;9.13;;
55312;SDS011;46892;45.668;11.756;2022-12-18T09:10:30;16.57;;;9.80;;
55312;SDS011;46892;45.668;11.756;2022-12-18T09:12:57;12.73;;;8.90;;
55312;SDS011;46892;45.668;11.756;2022-12-18T09:15:23;14.73;;;10.00;;
55312;SDS011;46892;45.668;11.756;2022-12-18T09:17:48;16.17;;;11.50;;
55312;SDS011;46892;45.668;11.756;2022-12-18T09:20:15;17.83;;;11.57;;
55312;SDS011;46892;45.668;11.756;2022-12-18T09:22:41;14.33;;;10.03;;
55312;SDS011;46892;45.668;11.756;2022-12-18T09:25:07;15.57;;;10.67;;
55312;SDS011;46892;45.668;11.756;2022-12-18T09:27:33;12.43;;;9.53;;
55312;SDS011;46892;45.668;11.756;2022-12-18T09:29:59;14.00;;;9.30;;
55312;SDS011;46892;45.668;11.756;2022-12-18T09:32:25;12.37;;;8.67;;
55312;SDS011;46892;45.668;11.756;2022-12-18T09:34:51;10.40;;;8.33;;
55312;SDS011;46892;45.668;11.756;2022-12-18T09:37:16;11.20;;;9.03;;
55312;SDS011;46892;45.668;11.756;2022-12-18T09:39:42;13.67;;;10.10;;
55312;SDS011;46892;45.668;11.756;2022-12-18T09:42:20;13.73;;;11.00;;
55312;SDS011;46892;45.668;11.756;2022-12-18T09:44:49;12.43;;;8.97;;
55312;SDS011;46892;45.668;11.756;2022-12-18T09:47:35;11.93;;;8.65;;
55312;SDS011;46892;45.668;11.756;2022-12-18T09:50:05;11.13;;;7.83;;
55312;SDS011;46892;45.668;11.756;2022-12-18T09:52:51;11.93;;;9.20;;
55312;SDS011;46892;45.668;11.756;2022-12-18T09:55:28;10.73;;;7.87;;
55312;SDS011;46892;45.668;11.756;2022-12-18T10:00:44;9.53;;;6.70;;
55312;SDS011;46892;45.668;11.756;2022-12-18T10:03:10;9.50;;;6.57;;
55312;SDS011;46892;45.668;11.756;2022-12-18T10:08:17;9.13;;;7.50;;
55312;SDS011;46892;45.668;11.756;2022-12-18T10:10:56;9.00;;;7.03;;
55312;SDS011;46892;45.668;11.756;2022-12-18T10:18:34;9.67;;;7.10;;
55312;SDS011;46892;45.668;11.756;2022-12-18T10:21:32;12.23;;;7.70;;
55312;SDS011;46892;45.668;11.756;2022-12-18T10:26:52;11.10;;;7.65;;
55312;SDS011;46892;45.668;11.756;2022-12-18T10:29:21;9.10;;;7.17;;
55312;SDS011;46892;45.668;11.756;2022-12-18T10:31:47;9.80;;;7.50;;
55312;SDS011;46892;45.668;11.756;2022-12-18T10:34:13;9.73;;;7.60;;
55312;SDS011;46892;45.668;11.756;2022-12-18T10:36:39;9.83;;;7.80;;
55312;SDS011;46892;45.668;11.756;2022-12-18T10:39:18;10.10;;;7.80;;
55312;SDS011;46892;45.668;11.756;2022-12-18T10:41:49;10.73;;;8.07;;
55312;SDS011;46892;45.668;11.756;2022-12-18T10:46:46;10.63;;;8.40;;
55312;SDS011;46892;45.668;11.756;2022-12-18T10:49:22;11.07;;;8.27;;
55312;SDS011;46892;45.668;11.756;2022-12-18T10:59:57;11.47;;;7.60;;
55312;SDS011;46892;45.668;11.756;2022-12-18T11:02:34;10.73;;;7.90;;
55312;SDS011;46892;45.668;11.756;2022-12-18T11:05:02;10.27;;;8.00;;
55312;SDS011;46892;45.668;11.756;2022-12-18T11:07:48;10.70;;;7.40;;
55312;SDS011;46892;45.668;11.756;2022-12-18T11:10:19;8.87;;;7.20;;
55312;SDS011;46892;45.668;11.756;2022-12-18T11:12:45;10.48;;;7.90;;
55312;SDS011;46892;45.668;11.756;2022-12-18T11:15:15;10.10;;;7.60;;
55312;SDS011;46892;45.668;11.756;2022-12-18T11:17:47;9.60;;;6.90;;
55312;SDS011;46892;45.668;11.756;2022-12-18T11:20:35;9.30;;;6.20;;
55312;SDS011;46892;45.668;11.756;2022-12-18T11:25:29;8.53;;;6.47;;
55312;SDS011;46892;45.668;11.756;2022-12-18T11:27:57;8.63;;;6.33;;
55312;SDS011;46892;45.668;11.756;2022-12-18T11:30:32;8.30;;;6.20;;
55312;SDS011;46892;45.668;11.756;2022-12-18T11:33:03;8.63;;;6.60;;
55312;SDS011;46892;45.668;11.756;2022-12-18T11:35:41;9.00;;;6.22;;
55312;SDS011;46892;45.668;11.756;2022-12-18T11:38:21;8.03;;;5.73;;
55312;SDS011;46892;45.668;11.756;2022-12-18T11:40:59;9.93;;;6.57;;
55312;SDS011;46892;45.668;11.756;2022-12-18T11:46:17;8.30;;;5.97;;
55312;SDS011;46892;45.668;11.756;2022-12-18T11:48:51;9.03;;;6.47;;
55312;SDS011;46892;45.668;11.756;2022-12-18T11:51:38;10.33;;;7.03;;
55312;SDS011;46892;45.668;11.756;2022-12-18T11:54:13;9.87;;;6.53;;
55312;SDS011;46892;45.668;11.756;2022-12-18T12:05:41;8.60;;;6.33;;
55312;SDS011;46892;45.668;11.756;2022-12-18T12:17:04;9.33;;;6.40;;
55312;SDS011;46892;45.668;11.756;2022-12-18T12:27:46;7.38;;;5.60;;
55312;SDS011;46892;45.668;11.756;2022-12-18T12:33:36;7.43;;;5.40;;
55312;SDS011;46892;45.668;11.756;2022-12-18T12:39:23;7.50;;;5.17;;
55312;SDS011;46892;45.668;11.756;2022-12-18T12:41:55;6.90;;;5.07;;
55312;SDS011;46892;45.668;11.756;2022-12-18T12:44:45;7.63;;;5.47;;
55312;SDS011;46892;45.668;11.756;2022-12-18T12:47:25;7.77;;;5.63;;
55312;SDS011;46892;45.668;11.756;2022-12-18T12:50:02;8.00;;;5.87;;
55312;SDS011;46892;45.668;11.756;2022-12-18T12:52:35;9.40;;;5.83;;
55312;SDS011;46892;45.668;11.756;2022-12-18T12:55:05;8.30;;;6.10;;
55312;SDS011;46892;45.668;11.756;2022-12-18T12:57:38;8.10;;;5.70;;
55312;SDS011;46892;45.668;11.756;2022-12-18T13:00:09;7.88;;;5.55;;
55312;SDS011;46892;45.668;11.756;2022-12-18T13:05:34;9.10;;;6.47;;
55312;SDS011;46892;45.668;11.756;2022-12-18T13:08:26;7.90;;;6.30;;
55312;SDS011;46892;45.668;11.756;2022-12-18T13:10:54;8.60;;;6.77;;
55312;SDS011;46892;45.668;11.756;2022-12-18T13:13:54;9.30;;;7.03;;
55312;SDS011;46892;45.668;11.756;2022-12-18T13:16:22;9.50;;;6.80;;
55312;SDS011;46892;45.668;11.756;2022-12-18T13:18:54;9.17;;;7.17;;
55312;SDS011;46892;45.668;11.756;2022-12-18T13:21:30;9.73;;;7.13;;
55312;SDS011;46892;45.668;11.756;2022-12-18T13:26:48;10.45;;;7.22;;
55312;SDS011;46892;45.668;11.756;2022-12-18T13:29:21;10.70;;;7.27;;
55312;SDS011;46892;45.668;11.756;2022-12-18T13:32:28;10.77;;;8.17;;
55312;SDS011;46892;45.668;11.756;2022-12-18T13:37:53;9.63;;;7.27;;
55312;SDS011;46892;45.668;11.756;2022-12-18T13:43:15;10.10;;;7.10;;
55312;SDS011;46892;45.668;11.756;2022-12-18T13:45:42;9.17;;;6.83;;
55312;SDS011;46892;45.668;11.756;2022-12-18T13:48:17;9.77;;;6.83;;
55312;SDS011;46892;45.668;11.756;2022-12-18T13:50:48;8.83;;;6.37;;
55312;SDS011;46892;45.668;11.756;2022-12-18T13:53:59;9.15;;;6.72;;
55312;SDS011;46892;45.668;11.756;2022-12-18T13:56:24;9.33;;;7.00;;
55312;SDS011;46892;45.668;11.756;2022-12-18T14:01:56;11.47;;;7.87;;
55312;SDS011;46892;45.668;11.756;2022-12-18T14:04:28;10.17;;;7.80;;
55312;SDS011;46892;45.668;11.756;2022-12-18T14:07:02;10.53;;;7.70;;
55312;SDS011;46892;45.668;11.756;2022-12-18T14:09:31;11.23;;;7.60;;
55312;SDS011;46892;45.668;11.756;2022-12-18T14:12:01;9.80;;;7.45;;
55312;SDS011;46892;45.668;11.756;2022-12-18T14:14:47;9.87;;;7.10;;
55312;SDS011;46892;45.668;11.756;2022-12-18T14:17:15;10.60;;;7.80;;
55312;SDS011;46892;45.668;11.756;2022-12-18T14:19:45;10.27;;;7.20;;
55312;SDS011;46892;45.668;11.756;2022-12-18T14:22:17;9.90;;;7.70;;
55312;SDS011;46892;45.668;11.756;2022-12-18T14:25:05;9.73;;;7.30;;
55312;SDS011;46892;45.668;11.756;2022-12-18T14:30:35;12.10;;;7.87;;
55312;SDS011;46892;45.668;11.756;2022-12-18T14:33:09;11.00;;;7.38;;
55312;SDS011;46892;45.668;11.756;2022-12-18T14:35:37;10.37;;;7.37;;
55312;SDS011;46892;45.668;11.756;2022-12-18T14:38:09;10.20;;;7.30;;
55312;SDS011;46892;45.668;11.756;2022-12-18T14:40:41;11.03;;;8.00;;
55312;SDS011;46892;45.668;11.756;2022-12-18T14:43:10;10.70;;;7.90;;
55312;SDS011;46892;45.668;11.756;2022-12-18T14:45:37;10.73;;;7.97;;
55312;SDS011;46892;45.668;11.756;2022-12-18T14:48:07;11.40;;;7.57;;
55312;SDS011;46892;45.668;11.756;2022-12-18T14:50:38;11.10;;;7.90;;
55312;SDS011;46892;45.668;11.756;2022-12-18T14:53:04;9.80;;;7.50;;
55312;SDS011;46892;45.668;11.756;2022-12-18T14:55:30;10.60;;;7.73;;
55312;SDS011;46892;45.668;11.756;2022-12-18T14:57:55;11.40;;;8.17;;
55312;SDS011;46892;45.668;11.756;2022-12-18T15:00:23;12.17;;;8.87;;
55312;SDS011;46892;45.668;11.756;2022-12-18T15:02:52;10.90;;;8.13;;
55312;SDS011;46892;45.668;11.756;2022-12-18T15:05:29;10.90;;;8.23;;
55312;SDS011;46892;45.668;11.756;2022-12-18T15:07:57;11.93;;;8.87;;
55312;SDS011;46892;45.668;11.756;2022-12-18T15:17:59;11.00;;;8.63;;
55312;SDS011;46892;45.668;11.756;2022-12-18T15:20:32;12.60;;;9.50;;
55312;SDS011;46892;45.668;11.756;2022-12-18T15:23:05;11.77;;;8.67;;
55312;SDS011;46892;45.668;11.756;2022-12-18T15:26:03;11.30;;;8.83;;
55312;SDS011;46892;45.668;11.756;2022-12-18T15:28:34;11.70;;;9.37;;
55312;SDS011;46892;45.668;11.756;2022-12-18T15:33:38;12.07;;;9.30;;
55312;SDS011;46892;45.668;11.756;2022-12-18T15:36:24;11.03;;;9.27;;
55312;SDS011;46892;45.668;11.756;2022-12-18T15:38:50;12.60;;;8.60;;
55312;SDS011;46892;45.668;11.756;2022-12-18T15:41:18;13.37;;;9.87;;
55312;SDS011;46892;45.668;11.756;2022-12-18T15:43:46;12.73;;;9.33;;
55312;SDS011;46892;45.668;11.756;2022-12-18T15:46:17;14.60;;;10.13;;
55312;SDS011;46892;45.668;11.756;2022-12-18T15:48:45;13.63;;;9.97;;
55312;SDS011;46892;45.668;11.756;2022-12-18T15:51:16;15.90;;;11.43;;
55312;SDS011;46892;45.668;11.756;2022-12-18T15:53:45;13.75;;;10.35;;
55312;SDS011;46892;45.668;11.756;2022-12-18T15:56:13;14.57;;;11.53;;
55312;SDS011;46892;45.668;11.756;2022-12-18T15:58:59;14.53;;;10.60;;
55312;SDS011;46892;45.668;11.756;2022-12-18T16:01:26;16.57;;;11.13;;
55312;SDS011;46892;45.668;11.756;2022-12-18T16:03:53;14.87;;;10.40;;
55312;SDS011;46892;45.668;11.756;2022-12-18T16:06:20;14.83;;;10.17;;
55312;SDS011;46892;45.668;11.756;2022-12-18T16:08:46;13.70;;;10.50;;
55312;SDS011;46892;45.668;11.756;2022-12-18T16:11:25;16.03;;;11.03;;
55312;SDS011;46892;45.668;11.756;2022-12-18T16:14:19;16.77;;;11.20;;
55312;SDS011;46892;45.668;11.756;2022-12-18T16:16:47;17.07;;;12.30;;
55312;SDS011;46892;45.668;11.756;2022-12-18T16:19:14;42.00;;;22.97;;
55312;SDS011;46892;45.668;11.756;2022-12-18T16:21:41;42.47;;;24.33;;
55312;SDS011;46892;45.668;11.756;2022-12-18T16:24:17;27.63;;;18.40;;
55312;SDS011;46892;45.668;11.756;2022-12-18T16:26:44;21.07;;;14.07;;
55312;SDS011;46892;45.668;11.756;2022-12-18T16:29:10;17.67;;;12.00;;
55312;SDS011;46892;45.668;11.756;2022-12-18T16:31:36;15.63;;;11.63;;
55312;SDS011;46892;45.668;11.756;2022-12-18T16:34:18;17.17;;;12.57;;
55312;SDS011;46892;45.668;11.756;2022-12-18T16:36:51;18.80;;;13.27;;
55312;SDS011;46892;45.668;11.756;2022-12-18T16:39:18;21.03;;;14.37;;
55312;SDS011;46892;45.668;11.756;2022-12-18T16:41:45;22.83;;;16.17;;
55312;SDS011;46892;45.668;11.756;2022-12-18T16:44:11;22.17;;;15.60;;